sim
Sign-in with your pilot id or email,
or register
Callsign
Passwort

Schedule Details

Flight Number: OEO2131
Departure: Thessaloniki International Airport (LGTS) at 14:50
Arrival: Munich Airport (EDDM) at 17:10

Weather Information
Getting current METAR information for LGTS 261820Z 23008KT 9999 FEW025 24/09 Q1001 NOSIG
Getting current METAR information for EDDM 261820Z 24020G32KT 9999 -RA OVC023 07/04 Q1001 NOSIG

Schedule Frequency

Route Map